createdAt,value
2017-10-14T00:00:36.154Z,3.89
2017-10-14T00:01:45.841Z,3.88
2017-10-14T00:02:55.437Z,3.83
2017-10-14T00:04:05.134Z,3.88
2017-10-14T00:05:14.821Z,3.84
2017-10-14T00:06:24.375Z,3.88
2017-10-14T00:07:34.107Z,3.88
2017-10-14T00:08:43.689Z,3.87
2017-10-14T00:09:53.374Z,3.88
2017-10-14T00:11:03.006Z,3.88
2017-10-14T00:12:12.641Z,3.88
2017-10-14T00:13:22.292Z,3.88
2017-10-14T00:14:31.910Z,3.87
2017-10-14T00:15:41.638Z,3.88
2017-10-14T00:16:51.273Z,3.88
2017-10-14T00:18:00.907Z,3.88
2017-10-14T00:19:10.723Z,3.85
2017-10-14T00:20:20.122Z,3.87
2017-10-14T00:21:29.773Z,3.88
2017-10-14T00:22:39.514Z,3.88
2017-10-14T00:23:49.093Z,3.85
2017-10-14T00:24:58.810Z,3.88
2017-10-14T00:26:08.438Z,3.88
2017-10-14T00:27:17.997Z,3.89
2017-10-14T00:28:27.703Z,3.86
2017-10-14T00:29:37.314Z,3.88
2017-10-14T00:30:46.970Z,3.84
2017-10-14T00:31:56.580Z,3.85
2017-10-14T00:33:06.240Z,3.88
2017-10-14T00:34:15.910Z,3.88
2017-10-14T00:35:25.603Z,3.88
2017-10-14T00:36:35.175Z,3.88
2017-10-14T00:37:44.870Z,3.88
2017-10-14T00:38:54.501Z,3.86
2017-10-14T00:40:04.152Z,3.83
2017-10-14T00:41:13.767Z,3.83
2017-10-14T00:42:23.408Z,3.88
2017-10-14T00:43:33.136Z,3.85
2017-10-14T00:44:42.724Z,3.86
2017-10-14T00:45:52.403Z,3.84
2017-10-14T00:47:01.995Z,3.89
2017-10-14T00:48:11.671Z,3.89
2017-10-14T00:50:04.656Z,3.85
2017-10-14T00:51:17.179Z,3.88
2017-10-14T00:52:26.849Z,3.85
2017-10-14T00:53:36.488Z,3.88
2017-10-14T00:54:46.143Z,3.83
2017-10-14T00:55:55.852Z,3.88
2017-10-14T00:57:05.483Z,3.89
2017-10-14T00:58:15.119Z,3.88
2017-10-14T00:59:24.748Z,3.87
2017-10-14T01:00:34.568Z,3.87
2017-10-14T01:01:44.015Z,3.88
2017-10-14T01:02:53.757Z,3.89
2017-10-14T01:04:03.382Z,3.89
2017-10-14T01:05:13.033Z,3.87
2017-10-14T01:06:22.595Z,3.88
2017-10-14T01:07:32.282Z,3.84
2017-10-14T01:08:41.889Z,3.83
2017-10-14T01:09:51.567Z,3.86
2017-10-14T01:11:01.184Z,3.89
2017-10-14T01:12:10.916Z,3.84
2017-10-14T01:13:20.496Z,3.84
2017-10-14T01:14:30.126Z,3.84
2017-10-14T01:15:39.798Z,3.87
2017-10-14T01:16:49.427Z,3.87
2017-10-14T01:17:59.079Z,3.87
2017-10-14T01:19:08.726Z,3.87
2017-10-14T01:20:18.402Z,3.87
2017-10-14T01:21:28.026Z,3.83
2017-10-14T01:22:37.716Z,3.88
2017-10-14T01:23:47.347Z,3.87
2017-10-14T01:24:57.012Z,3.85
2017-10-14T01:26:06.730Z,3.87
2017-10-14T01:27:16.349Z,3.88
2017-10-14T01:28:25.944Z,3.84
2017-10-14T01:29:35.591Z,3.87
2017-10-14T01:30:45.272Z,3.87
2017-10-14T01:31:54.905Z,3.87
2017-10-14T01:33:04.576Z,3.83
2017-10-14T01:34:14.213Z,3.83
2017-10-14T01:35:23.981Z,3.87
2017-10-14T01:36:33.522Z,3.87
2017-10-14T01:37:43.184Z,3.87
2017-10-14T01:38:52.833Z,3.87
2017-10-14T01:40:02.493Z,3.87
2017-10-14T01:41:12.173Z,3.86
2017-10-14T01:42:22.804Z,3.83
2017-10-14T01:43:31.514Z,3.87
2017-10-14T01:44:41.147Z,3.85
2017-10-14T01:45:50.818Z,3.87
2017-10-14T01:47:02.027Z,3.85
2017-10-14T01:48:10.101Z,3.85
2017-10-14T01:49:19.781Z,3.84
2017-10-14T01:50:29.515Z,3.87
2017-10-14T01:51:39.097Z,3.87
2017-10-14T01:52:48.780Z,3.85
2017-10-14T01:53:58.388Z,3.87
2017-10-14T01:55:08.050Z,3.87
2017-10-14T01:56:17.799Z,3.83
2017-10-14T01:57:27.371Z,3.88
2017-10-14T01:58:37.049Z,3.86
2017-10-14T01:59:46.694Z,3.85
2017-10-14T02:00:56.357Z,3.83
2017-10-14T02:02:06.068Z,3.87
2017-10-14T02:03:15.685Z,3.87
2017-10-14T02:04:25.345Z,3.87
2017-10-14T02:05:35.051Z,3.87
2017-10-14T02:06:44.867Z,3.86
2017-10-14T02:07:54.418Z,3.87
2017-10-14T02:09:04.050Z,3.86
2017-10-14T02:10:13.689Z,3.86
2017-10-14T02:11:23.418Z,3.84
2017-10-14T02:12:33.050Z,3.87
2017-10-14T02:13:42.683Z,3.83
2017-10-14T02:14:52.281Z,3.87
2017-10-14T02:16:01.956Z,3.83
2017-10-14T02:17:11.701Z,3.87
2017-10-14T02:18:21.318Z,3.86
2017-10-14T02:19:30.916Z,3.86
2017-10-14T02:20:40.585Z,3.86
2017-10-14T02:21:50.336Z,3.83
2017-10-14T02:22:59.894Z,3.86
2017-10-14T02:24:09.586Z,3.84
2017-10-14T02:25:19.219Z,3.87
2017-10-14T02:26:28.865Z,3.86
2017-10-14T02:27:38.603Z,3.86
2017-10-14T02:28:48.181Z,3.87
2017-10-14T02:29:57.842Z,3.86
2017-10-14T02:31:07.497Z,3.86
2017-10-14T02:32:17.480Z,3.86
2017-10-14T02:33:26.803Z,3.86
2017-10-14T02:34:36.455Z,3.83
2017-10-14T02:35:46.115Z,3.86
2017-10-14T02:36:56.552Z,3.82
2017-10-14T02:38:05.449Z,3.87
2017-10-14T02:39:15.119Z,3.86
2017-10-14T02:40:24.722Z,3.90
2017-10-14T02:41:34.385Z,3.83
2017-10-14T02:42:44.141Z,3.86
2017-10-14T02:43:53.752Z,3.82
2017-10-14T02:45:03.350Z,3.86
2017-10-14T02:46:12.983Z,3.86
2017-10-14T02:47:22.655Z,3.86
2017-10-14T02:48:32.287Z,3.87
2017-10-14T02:49:42.018Z,3.83
2017-10-14T02:50:51.581Z,3.83
2017-10-14T02:52:01.232Z,3.85
2017-10-14T02:53:10.934Z,3.86
2017-10-14T02:54:21.063Z,3.86
2017-10-14T02:55:30.240Z,3.86
2017-10-14T02:56:39.822Z,3.86
2017-10-14T02:57:49.568Z,3.86
2017-10-14T02:58:59.094Z,3.83
2017-10-14T03:00:08.736Z,3.86
2017-10-14T03:01:18.505Z,3.86
2017-10-14T03:02:28.106Z,3.86
2017-10-14T03:03:37.651Z,3.86
2017-10-14T03:04:47.349Z,3.86
2017-10-14T03:05:56.921Z,3.86
2017-10-14T03:07:06.562Z,3.86
2017-10-14T03:08:16.208Z,3.83
2017-10-14T03:09:25.805Z,3.86
2017-10-14T03:10:35.512Z,3.89
2017-10-14T03:11:45.062Z,3.82
2017-10-14T03:12:54.883Z,3.86
2017-10-14T03:14:04.310Z,3.85
2017-10-14T03:15:13.949Z,3.86
2017-10-14T03:16:23.575Z,3.86
2017-10-14T03:17:33.181Z,3.84
2017-10-14T03:18:42.809Z,3.84
2017-10-14T03:19:52.473Z,3.86
2017-10-14T03:21:02.017Z,3.83
2017-10-14T03:22:11.636Z,3.82
2017-10-14T03:23:21.272Z,3.86
2017-10-14T03:24:30.862Z,3.86
2017-10-14T03:25:40.536Z,3.86
2017-10-14T03:26:50.098Z,3.86
2017-10-14T03:27:59.700Z,3.83
2017-10-14T03:29:09.334Z,3.87
2017-10-14T03:30:18.965Z,3.88
2017-10-14T03:31:28.538Z,3.86
2017-10-14T03:32:38.144Z,3.86
2017-10-14T03:33:47.786Z,3.85
2017-10-14T03:34:57.365Z,3.86
2017-10-14T03:36:07.026Z,3.86
2017-10-14T03:37:16.583Z,3.82
2017-10-14T03:38:26.289Z,3.82
2017-10-14T03:39:35.802Z,3.86
2017-10-14T03:40:45.407Z,3.86
2017-10-14T03:41:55.011Z,3.86
2017-10-14T03:43:04.722Z,3.86
2017-10-14T03:44:14.274Z,3.86
2017-10-14T03:45:23.881Z,3.82
2017-10-14T03:46:33.427Z,3.86
2017-10-14T03:47:43.048Z,3.86
2017-10-14T03:48:52.658Z,3.86
2017-10-14T03:50:02.237Z,3.84
2017-10-14T03:51:11.850Z,3.84
2017-10-14T03:52:21.476Z,3.86
2017-10-14T03:53:32.032Z,3.86
2017-10-14T03:54:40.662Z,3.88
2017-10-14T03:55:50.272Z,3.86
2017-10-14T03:57:00.852Z,3.86
2017-10-14T03:58:09.638Z,3.83
2017-10-14T03:59:19.602Z,3.88
2017-10-14T04:00:28.631Z,3.86
2017-10-14T04:01:38.229Z,3.86
2017-10-14T04:02:47.866Z,3.86
2017-10-14T04:03:57.406Z,3.86
2017-10-14T04:05:07.017Z,3.86
2017-10-14T04:06:16.663Z,3.85
2017-10-14T04:07:26.190Z,3.83
2017-10-14T04:08:35.825Z,3.86
2017-10-14T04:09:45.381Z,3.86
2017-10-14T04:10:54.941Z,3.86
2017-10-14T04:12:04.530Z,3.85
2017-10-14T04:13:14.149Z,3.86
2017-10-14T04:14:24.729Z,3.86
2017-10-14T04:15:33.390Z,3.85
2017-10-14T04:16:42.886Z,3.85
2017-10-14T04:17:52.681Z,3.86
2017-10-14T04:19:02.184Z,3.87
2017-10-14T04:20:11.927Z,3.86
2017-10-14T04:21:21.226Z,3.86
2017-10-14T04:22:30.908Z,3.86
2017-10-14T04:23:40.435Z,3.86
2017-10-14T04:24:50.003Z,3.85
2017-10-14T04:25:59.563Z,3.86
2017-10-14T04:27:09.231Z,3.84
2017-10-14T04:28:18.726Z,3.88
2017-10-14T04:29:28.396Z,3.80
2017-10-14T04:30:37.940Z,3.86
2017-10-14T04:31:47.477Z,3.82
2017-10-14T04:32:57.094Z,3.88
2017-10-14T04:34:07.646Z,3.86
2017-10-14T04:35:16.253Z,3.83
2017-10-14T04:36:25.965Z,3.86
2017-10-14T04:37:35.416Z,3.85
2017-10-14T04:38:44.989Z,3.81
2017-10-14T04:39:54.821Z,3.86
2017-10-14T04:41:04.211Z,3.85
2017-10-14T04:42:13.747Z,3.87
2017-10-14T04:43:23.374Z,3.82
2017-10-14T04:44:32.914Z,3.85
2017-10-14T04:45:42.526Z,3.86
2017-10-14T04:46:52.170Z,3.86
2017-10-14T04:48:01.700Z,3.88
2017-10-14T04:49:11.334Z,3.86
2017-10-14T04:50:20.855Z,3.86
2017-10-14T04:51:30.497Z,3.86
2017-10-14T04:52:40.028Z,3.82
2017-10-14T04:53:49.565Z,3.84
2017-10-14T04:54:59.193Z,3.85
2017-10-14T04:56:08.981Z,3.85
2017-10-14T04:57:18.353Z,3.86
2017-10-14T04:58:27.883Z,3.85
2017-10-14T04:59:37.428Z,3.88
2017-10-14T05:00:47.018Z,3.84
2017-10-14T05:01:56.577Z,3.86
2017-10-14T05:03:07.618Z,3.87
2017-10-14T05:04:15.745Z,3.86
2017-10-14T05:05:25.274Z,3.86
2017-10-14T05:06:34.869Z,3.82
2017-10-14T05:07:44.405Z,3.86
2017-10-14T05:08:53.984Z,3.85
2017-10-14T05:10:03.565Z,3.89
2017-10-14T05:11:13.127Z,3.86
2017-10-14T05:12:22.672Z,3.85
2017-10-14T05:13:32.293Z,3.85
2017-10-14T05:14:41.827Z,3.84
2017-10-14T05:15:51.454Z,3.86
2017-10-14T05:17:00.986Z,3.86
2017-10-14T05:18:10.521Z,3.85
2017-10-14T05:19:20.050Z,3.85
2017-10-14T05:20:29.588Z,3.83
2017-10-14T05:21:39.396Z,3.85
2017-10-14T05:22:49.568Z,3.85
2017-10-14T05:23:58.260Z,3.85
2017-10-14T05:25:07.803Z,3.81
2017-10-14T05:26:17.384Z,3.86
2017-10-14T05:27:26.966Z,3.84
2017-10-14T05:28:36.497Z,3.87
2017-10-14T05:29:45.994Z,3.85
2017-10-14T05:30:55.560Z,3.85
2017-10-14T05:32:05.111Z,3.88
2017-10-14T05:33:14.628Z,3.82
2017-10-14T05:34:25.171Z,3.81
2017-10-14T05:35:33.723Z,3.83
2017-10-14T05:36:43.333Z,3.85
2017-10-14T05:37:52.842Z,3.85
2017-10-14T05:39:02.334Z,3.84
2017-10-14T05:40:11.902Z,3.82
2017-10-14T05:41:21.413Z,3.86
2017-10-14T05:42:31.223Z,3.85
2017-10-14T05:43:40.496Z,3.85
2017-10-14T05:44:50.026Z,3.85
2017-10-14T05:45:59.557Z,3.85
2017-10-14T05:47:09.106Z,3.85
2017-10-14T05:48:18.614Z,3.82
2017-10-14T05:49:28.145Z,3.85
2017-10-14T05:50:37.678Z,3.86
2017-10-14T05:51:47.210Z,3.85
2017-10-14T05:52:56.717Z,3.85
2017-10-14T05:54:06.269Z,3.85
2017-10-14T05:55:15.767Z,3.81
2017-10-14T05:56:25.291Z,3.85
2017-10-14T05:57:34.848Z,3.82
2017-10-14T05:58:44.343Z,3.85
2017-10-14T05:59:53.867Z,3.84
2017-10-14T06:01:03.394Z,3.83
2017-10-14T06:02:13.249Z,3.85
2017-10-14T06:03:22.440Z,3.85
2017-10-14T06:04:32.961Z,3.84
2017-10-14T06:05:41.571Z,3.85
2017-10-14T06:06:51.027Z,3.83
2017-10-14T06:08:00.650Z,3.85
2017-10-14T06:09:10.061Z,3.86
2017-10-14T06:10:19.593Z,3.89
2017-10-14T06:11:29.093Z,3.85
2017-10-14T06:12:38.630Z,3.85
2017-10-14T06:13:48.181Z,3.85
2017-10-14T06:14:57.637Z,3.83
2017-10-14T06:16:07.242Z,3.85
2017-10-14T06:17:16.775Z,3.83
2017-10-14T06:18:26.227Z,3.84
2017-10-14T06:19:35.733Z,3.85
2017-10-14T06:20:45.263Z,3.85
2017-10-14T06:21:54.764Z,3.85
2017-10-14T06:23:04.314Z,3.84
2017-10-14T06:24:13.854Z,3.82
2017-10-14T06:25:23.346Z,3.81
2017-10-14T06:26:32.916Z,3.87
2017-10-14T06:27:42.463Z,3.85
2017-10-14T06:28:51.980Z,3.86
2017-10-14T06:30:01.504Z,3.85
2017-10-14T06:31:11.008Z,3.84
2017-10-14T06:32:20.534Z,3.84
2017-10-14T06:33:30.281Z,3.87
2017-10-14T06:34:39.627Z,3.86
2017-10-14T06:35:49.163Z,3.83
2017-10-14T06:36:58.792Z,3.85
2017-10-14T06:38:08.337Z,3.87
2017-10-14T06:39:17.855Z,3.84
2017-10-14T06:40:28.412Z,3.80
2017-10-14T06:41:36.911Z,3.85
2017-10-14T06:42:46.449Z,3.85
2017-10-14T06:43:56.158Z,3.83
2017-10-14T06:45:05.519Z,3.82
2017-10-14T06:46:15.134Z,3.85
2017-10-14T06:47:24.629Z,3.85
2017-10-14T06:48:34.218Z,3.86
2017-10-14T06:49:43.748Z,3.84
2017-10-14T06:50:53.368Z,3.86
2017-10-14T06:52:02.887Z,3.86
2017-10-14T06:53:12.547Z,3.86
2017-10-14T06:54:22.058Z,3.85
2017-10-14T06:55:31.585Z,3.85
2017-10-14T06:56:42.139Z,3.85
2017-10-14T06:57:50.747Z,3.80
2017-10-14T06:59:00.312Z,3.85
2017-10-14T07:00:09.862Z,3.87
2017-10-14T07:01:19.441Z,3.86
2017-10-14T07:02:29.012Z,3.81
2017-10-14T07:03:38.629Z,3.86
2017-10-14T07:04:48.168Z,3.86
2017-10-14T07:05:57.844Z,3.84
2017-10-14T07:07:07.329Z,3.83
2017-10-14T07:08:16.934Z,3.83
2017-10-14T07:09:26.530Z,3.86
2017-10-14T07:10:36.103Z,3.86
2017-10-14T07:11:45.680Z,3.86
2017-10-14T07:12:55.275Z,3.86
2017-10-14T07:14:05.075Z,3.86
2017-10-14T07:15:14.525Z,3.81
2017-10-14T07:16:24.233Z,3.86
2017-10-14T07:17:33.685Z,3.87
2017-10-14T07:18:43.257Z,3.86
2017-10-14T07:19:52.873Z,3.83
2017-10-14T07:21:02.444Z,3.81
2017-10-14T07:22:12.046Z,3.83
2017-10-14T07:23:21.647Z,3.86
2017-10-14T07:24:31.295Z,3.86
2017-10-14T07:25:40.847Z,3.86
2017-10-14T07:26:50.544Z,3.87
2017-10-14T07:28:00.079Z,3.86
2017-10-14T07:29:09.686Z,3.86
2017-10-14T07:30:20.363Z,3.82
2017-10-14T07:31:28.975Z,3.84
2017-10-14T07:32:39.016Z,3.80
2017-10-14T07:33:48.090Z,3.80
2017-10-14T07:34:57.720Z,3.86
2017-10-14T07:36:07.302Z,3.85
2017-10-14T07:37:16.902Z,3.86
2017-10-14T07:38:26.515Z,3.86
2017-10-14T07:39:36.149Z,3.86
2017-10-14T07:40:45.829Z,3.85
2017-10-14T07:41:55.360Z,3.86
2017-10-14T07:43:04.959Z,3.88
2017-10-14T07:44:14.626Z,3.86
2017-10-14T07:45:24.208Z,3.83
2017-10-14T07:46:33.891Z,3.86
2017-10-14T07:47:43.430Z,3.86
2017-10-14T07:48:53.037Z,3.86
2017-10-14T07:50:02.875Z,3.83
2017-10-14T07:51:12.294Z,3.83
2017-10-14T07:52:22.032Z,3.85
2017-10-14T07:53:31.504Z,3.84
2017-10-14T07:54:41.219Z,3.82
2017-10-14T07:55:50.751Z,3.84
2017-10-14T07:57:00.352Z,3.83
2017-10-14T07:58:10.016Z,3.86
2017-10-14T07:59:19.649Z,3.85
2017-10-14T08:00:30.227Z,3.86
2017-10-14T08:01:38.917Z,3.85
2017-10-14T08:02:48.570Z,3.83
2017-10-14T08:03:58.184Z,3.86
2017-10-14T08:05:07.740Z,3.85
2017-10-14T08:06:17.317Z,3.82
2017-10-14T08:07:26.948Z,3.83
2017-10-14T08:08:36.610Z,3.85
2017-10-14T08:09:46.242Z,3.85
2017-10-14T08:10:55.854Z,3.86
2017-10-14T08:12:05.509Z,3.85
2017-10-14T08:13:15.152Z,3.85
2017-10-14T08:14:24.775Z,3.81
2017-10-14T08:15:34.371Z,3.82
2017-10-14T08:16:43.981Z,3.88
2017-10-14T08:17:53.622Z,3.87
2017-10-14T08:19:03.252Z,3.88
2017-10-14T08:20:12.879Z,3.88
2017-10-14T08:21:22.535Z,3.84
2017-10-14T08:22:32.171Z,3.88
2017-10-14T08:23:41.837Z,3.85
2017-10-14T08:24:51.545Z,3.89
2017-10-14T08:26:01.119Z,3.89
2017-10-14T08:27:10.714Z,3.91
2017-10-14T08:28:20.370Z,3.89
2017-10-14T08:29:30.000Z,3.89
2017-10-14T08:30:39.684Z,3.87
2017-10-14T08:31:49.367Z,3.89
2017-10-14T08:32:58.949Z,3.89
2017-10-14T08:34:08.659Z,3.88
2017-10-14T08:35:18.269Z,3.87
2017-10-14T08:36:28.261Z,3.89
2017-10-14T08:37:37.635Z,3.84
2017-10-14T08:38:47.267Z,3.91
2017-10-14T08:39:56.878Z,3.91
2017-10-14T08:41:06.568Z,3.89
2017-10-14T08:42:16.269Z,3.88
2017-10-14T08:43:25.904Z,3.90
2017-10-14T08:44:35.699Z,3.85
2017-10-14T08:45:45.232Z,3.92
2017-10-14T08:46:54.927Z,3.92
2017-10-14T08:48:04.880Z,3.85
2017-10-14T08:49:14.247Z,3.91
2017-10-14T08:50:24.007Z,3.85
2017-10-14T08:51:33.822Z,3.90
2017-10-14T08:52:43.373Z,3.90
2017-10-14T08:53:52.968Z,3.88
2017-10-14T08:55:02.649Z,3.90
2017-10-14T08:56:12.400Z,3.87
2017-10-14T08:57:22.017Z,3.90
2017-10-14T08:58:31.693Z,3.89
2017-10-14T08:59:41.392Z,3.90
2017-10-14T09:00:51.075Z,3.90
2017-10-14T09:02:00.783Z,3.86
2017-10-14T09:03:10.451Z,3.91
2017-10-14T09:04:20.144Z,3.87
2017-10-14T09:05:29.846Z,3.87
2017-10-14T09:06:39.841Z,3.91
2017-10-14T09:07:49.393Z,3.91
2017-10-14T09:08:58.954Z,3.91
2017-10-14T09:10:08.634Z,3.87
2017-10-14T09:11:18.353Z,3.88
2017-10-14T09:12:28.087Z,3.90
2017-10-14T09:13:37.874Z,3.91
2017-10-14T09:14:47.522Z,3.86
2017-10-14T09:15:57.258Z,3.88
2017-10-14T09:17:07.076Z,3.91
2017-10-14T09:18:17.140Z,3.91
2017-10-14T09:19:26.364Z,3.92
2017-10-14T09:20:36.098Z,3.92
2017-10-14T09:21:45.832Z,3.90
2017-10-14T09:22:55.671Z,3.93
2017-10-14T09:24:05.172Z,3.93
2017-10-14T09:25:14.889Z,3.93
2017-10-14T09:26:24.670Z,3.93
2017-10-14T09:27:35.595Z,3.93
2017-10-14T09:28:44.082Z,3.88
2017-10-14T09:29:54.118Z,3.93
2017-10-14T09:31:03.612Z,3.93
2017-10-14T09:32:13.312Z,3.93
2017-10-14T09:33:23.024Z,3.93
2017-10-14T09:34:32.768Z,3.89
2017-10-14T09:35:42.500Z,3.91
2017-10-14T09:36:52.290Z,3.93
2017-10-14T09:38:02.014Z,3.90
2017-10-14T09:39:11.763Z,3.93
2017-10-14T09:40:21.499Z,3.94
2017-10-14T09:41:31.498Z,3.91
2017-10-14T09:42:41.010Z,3.94
2017-10-14T09:43:51.313Z,3.94
2017-10-14T09:45:00.540Z,3.94
2017-10-14T09:46:10.276Z,3.95
2017-10-14T09:47:20.038Z,3.94
2017-10-14T09:48:30.031Z,3.93
2017-10-14T09:49:39.581Z,3.95
2017-10-14T09:50:49.348Z,3.93
2017-10-14T09:51:59.115Z,3.93
2017-10-14T09:53:09.175Z,3.95
2017-10-14T09:54:18.728Z,3.95
2017-10-14T09:55:28.463Z,3.95
2017-10-14T09:56:38.297Z,3.99
2017-10-14T09:57:48.060Z,3.92
2017-10-14T09:58:57.873Z,3.95
2017-10-14T10:00:07.605Z,3.95
2017-10-14T10:01:17.445Z,3.95
2017-10-14T10:02:27.358Z,3.94
2017-10-14T10:03:36.996Z,3.95
2017-10-14T10:04:46.765Z,3.96
2017-10-14T10:05:56.566Z,3.96
2017-10-14T10:07:06.427Z,3.93
2017-10-14T10:08:16.195Z,3.93
2017-10-14T10:09:26.002Z,3.96
2017-10-14T10:10:35.837Z,3.96
2017-10-14T10:11:45.583Z,3.96
2017-10-14T10:12:55.432Z,3.93
2017-10-14T10:14:05.434Z,3.96
2017-10-14T10:15:15.087Z,3.95
2017-10-14T10:16:24.924Z,3.95
2017-10-14T10:17:34.664Z,3.93
2017-10-14T10:18:44.488Z,3.97
2017-10-14T10:19:54.349Z,3.97
2017-10-14T10:21:04.119Z,3.93
2017-10-14T10:22:14.011Z,3.98
2017-10-14T10:23:24.053Z,3.97
2017-10-14T10:24:33.585Z,3.98
2017-10-14T10:25:43.424Z,3.94
2017-10-14T10:26:53.226Z,3.98
2017-10-14T10:28:03.097Z,3.98
2017-10-14T10:29:12.950Z,3.94
2017-10-14T10:30:22.773Z,3.98
2017-10-14T10:31:32.540Z,3.99
2017-10-14T10:32:42.372Z,3.95
2017-10-14T10:33:53.231Z,3.95
2017-10-14T10:35:02.539Z,3.96
2017-10-14T10:36:11.959Z,4.00
2017-10-14T10:37:21.744Z,3.99
2017-10-14T10:38:31.642Z,3.99
2017-10-14T10:39:41.453Z,3.98
2017-10-14T10:40:51.286Z,3.99
2017-10-14T10:42:01.145Z,3.95
2017-10-14T10:43:10.987Z,3.97
2017-10-14T10:44:20.888Z,3.99
2017-10-14T10:45:30.771Z,4.00
2017-10-14T10:46:40.606Z,4.00
2017-10-14T10:47:50.445Z,4.00
2017-10-14T10:49:00.819Z,3.96
2017-10-14T10:50:10.116Z,3.99
2017-10-14T10:51:20.131Z,4.00
2017-10-14T10:52:29.897Z,4.00
2017-10-14T10:53:39.731Z,4.00
2017-10-14T10:54:49.840Z,4.00
2017-10-14T10:55:59.985Z,4.00
2017-10-14T10:57:09.293Z,4.00
2017-10-14T10:58:19.259Z,4.00
2017-10-14T10:59:29.053Z,3.97
2017-10-14T11:00:38.909Z,4.02
2017-10-14T11:01:48.799Z,4.01
2017-10-14T11:02:58.743Z,4.01
2017-10-14T11:04:08.678Z,4.01
2017-10-14T11:05:18.426Z,4.02
2017-10-14T11:06:28.307Z,4.01
2017-10-14T11:07:38.369Z,4.02
2017-10-14T11:08:48.096Z,4.00
2017-10-14T11:09:58.085Z,4.02
2017-10-14T11:11:07.884Z,4.02
2017-10-14T11:12:17.788Z,3.98
2017-10-14T11:13:27.700Z,3.99
2017-10-14T11:14:37.642Z,4.03
2017-10-14T11:15:47.675Z,3.99
2017-10-14T11:16:57.553Z,3.99
2017-10-14T11:18:07.652Z,4.02
2017-10-14T11:19:17.600Z,3.98
2017-10-14T11:20:27.668Z,4.03
2017-10-14T11:21:37.732Z,4.03
2017-10-14T11:22:48.853Z,4.01
2017-10-14T11:23:57.984Z,4.02
2017-10-14T11:25:08.230Z,4.02
2017-10-14T11:26:18.319Z,4.00
2017-10-14T11:27:28.605Z,4.03
2017-10-14T11:28:38.720Z,4.02
2017-10-14T11:29:48.952Z,4.03
2017-10-14T11:30:59.410Z,4.03
2017-10-14T11:32:09.454Z,4.03
2017-10-14T11:33:19.743Z,4.03
2017-10-14T11:34:30.089Z,4.03
2017-10-14T11:35:40.351Z,4.03
2017-10-14T11:36:51.609Z,4.03
2017-10-14T11:38:00.939Z,4.03
2017-10-14T11:39:11.261Z,4.02
2017-10-14T11:40:21.732Z,4.00
2017-10-14T11:41:31.989Z,4.04
2017-10-14T11:42:42.405Z,4.03
2017-10-14T11:43:52.682Z,4.03
2017-10-14T11:45:03.002Z,4.00
2017-10-14T11:46:13.405Z,4.00
2017-10-14T11:47:23.773Z,4.04
2017-10-14T11:48:34.257Z,4.00
2017-10-14T11:49:44.541Z,4.00
2017-10-14T11:50:55.014Z,4.04
2017-10-14T11:52:05.438Z,4.04
2017-10-14T11:53:15.859Z,4.04
2017-10-14T11:54:26.167Z,4.00
2017-10-14T11:55:36.690Z,4.04
2017-10-14T11:56:47.004Z,4.04
2017-10-14T11:57:57.438Z,4.04
2017-10-14T11:59:08.868Z,4.02
2017-10-14T12:00:19.321Z,4.02
2017-10-14T12:01:28.788Z,4.04
2017-10-14T12:02:39.296Z,4.04
2017-10-14T12:03:49.755Z,4.04
2017-10-14T12:05:00.201Z,4.03
2017-10-14T12:06:10.590Z,4.04
2017-10-14T12:07:21.018Z,4.05
2017-10-14T12:08:31.564Z,4.04
2017-10-14T12:09:42.308Z,4.04
2017-10-14T12:10:52.363Z,4.05
2017-10-14T12:12:02.839Z,4.05
2017-10-14T12:13:13.267Z,4.02
2017-10-14T12:14:23.818Z,4.05
2017-10-14T12:15:34.196Z,4.03
2017-10-14T12:16:44.738Z,4.05
2017-10-14T12:17:55.248Z,4.05
2017-10-14T12:19:05.701Z,4.02
2017-10-14T12:20:16.081Z,4.05
2017-10-14T12:21:26.817Z,4.05
2017-10-14T12:22:37.085Z,4.05
2017-10-14T12:23:47.514Z,4.05
2017-10-14T12:24:58.108Z,4.06
2017-10-14T12:26:08.542Z,4.03
2017-10-14T12:27:19.030Z,4.05
2017-10-14T12:28:29.559Z,4.07
2017-10-14T12:29:40.002Z,4.06
2017-10-14T12:30:51.480Z,4.06
2017-10-14T12:32:01.030Z,4.05
2017-10-14T12:33:11.664Z,4.06
2017-10-14T12:34:22.017Z,4.04
2017-10-14T12:35:32.496Z,4.08
2017-10-14T12:36:43.020Z,4.05
2017-10-14T12:37:53.577Z,4.06
2017-10-14T12:39:04.129Z,4.07
2017-10-14T12:40:14.758Z,4.07
2017-10-14T12:41:25.146Z,4.06
2017-10-14T12:42:35.895Z,4.07
2017-10-14T12:43:46.151Z,4.07
2017-10-14T12:44:56.641Z,4.04
2017-10-14T12:46:07.252Z,4.07
2017-10-14T12:47:17.908Z,4.07
2017-10-14T12:48:28.269Z,4.03
2017-10-14T12:49:38.803Z,4.04
2017-10-14T12:50:49.370Z,4.07
2017-10-14T12:51:59.920Z,4.06
2017-10-14T12:53:10.582Z,4.07
2017-10-14T12:54:21.059Z,4.08
2017-10-14T12:55:31.603Z,4.07
2017-10-14T12:56:42.206Z,4.07
2017-10-14T12:57:52.834Z,4.05
2017-10-14T12:59:03.459Z,4.08
2017-10-14T13:00:14.110Z,4.08
2017-10-14T13:01:24.666Z,4.08
2017-10-14T13:02:35.695Z,4.08
2017-10-14T13:03:45.983Z,4.08
2017-10-14T13:04:56.583Z,4.08
2017-10-14T13:06:07.301Z,4.05
2017-10-14T13:07:17.870Z,4.08
2017-10-14T13:08:28.486Z,4.07
2017-10-14T13:09:39.125Z,4.08
2017-10-14T13:10:49.773Z,4.05
2017-10-14T13:12:00.437Z,4.08
2017-10-14T13:13:11.295Z,4.06
2017-10-14T13:14:21.863Z,4.08
2017-10-14T13:15:32.520Z,4.08
2017-10-14T13:16:43.021Z,4.06
2017-10-14T13:17:53.680Z,4.08
2017-10-14T13:19:04.355Z,4.09
2017-10-14T13:20:14.970Z,4.05
2017-10-14T13:21:25.624Z,4.09
2017-10-14T13:22:36.203Z,4.09
2017-10-14T13:23:46.781Z,4.06
2017-10-14T13:24:57.495Z,4.09
2017-10-14T13:26:08.048Z,4.09
2017-10-14T13:27:18.605Z,4.09
2017-10-14T13:28:29.179Z,4.09
2017-10-14T13:29:40.941Z,4.09
2017-10-14T13:30:50.322Z,4.09
2017-10-14T13:32:00.912Z,4.07
2017-10-14T13:33:11.597Z,4.09
2017-10-14T13:34:22.134Z,4.09
2017-10-14T13:35:32.690Z,4.09
2017-10-14T13:36:43.171Z,4.09
2017-10-14T13:37:53.814Z,4.09
2017-10-14T13:39:04.460Z,4.09
2017-10-14T13:40:14.820Z,4.10
2017-10-14T13:41:25.347Z,4.10
2017-10-14T13:42:35.916Z,4.08
2017-10-14T13:43:46.428Z,4.09
2017-10-14T13:44:56.933Z,4.07
2017-10-14T13:46:07.472Z,4.07
2017-10-14T13:47:17.954Z,4.10
2017-10-14T13:48:28.498Z,4.10
2017-10-14T13:49:38.953Z,4.10
2017-10-14T13:50:49.435Z,4.10
2017-10-14T13:51:59.936Z,4.09
2017-10-14T13:53:10.418Z,4.10
2017-10-14T13:54:21.130Z,4.10
2017-10-14T13:55:31.401Z,4.08
2017-10-14T13:56:41.862Z,4.10
2017-10-14T13:57:53.329Z,4.07
2017-10-14T13:59:02.837Z,4.10
2017-10-14T14:00:13.269Z,4.07
2017-10-14T14:01:23.763Z,4.10
2017-10-14T14:02:34.220Z,4.10
2017-10-14T14:03:44.684Z,4.00
2017-10-14T14:04:55.116Z,4.11
2017-10-14T14:06:05.573Z,4.10
2017-10-14T14:07:15.975Z,4.10
2017-10-14T14:08:26.988Z,4.10
2017-10-14T14:09:36.942Z,4.11
2017-10-14T14:10:47.376Z,4.10
2017-10-14T14:11:57.724Z,4.11
2017-10-14T14:13:08.177Z,4.10
2017-10-14T14:14:18.644Z,4.09
2017-10-14T14:15:28.930Z,4.11
2017-10-14T14:16:39.512Z,4.11
2017-10-14T14:17:49.771Z,4.10
2017-10-14T14:19:00.231Z,4.11
2017-10-14T14:20:10.609Z,4.11
2017-10-14T14:21:21.044Z,4.09
2017-10-14T14:22:31.408Z,4.10
2017-10-14T14:23:41.815Z,4.09
2017-10-14T14:24:52.304Z,4.09
2017-10-14T14:26:02.643Z,4.11
2017-10-14T14:27:13.091Z,4.08
2017-10-14T14:28:23.541Z,4.11
2017-10-14T14:29:33.915Z,4.10
2017-10-14T14:30:44.342Z,4.12
2017-10-14T14:31:54.653Z,4.11
2017-10-14T14:33:05.144Z,4.12
2017-10-14T14:34:15.462Z,4.11
2017-10-14T14:35:25.872Z,4.08
2017-10-14T14:36:37.218Z,4.12
2017-10-14T14:37:46.615Z,4.08
2017-10-14T14:38:56.997Z,4.12
2017-10-14T14:40:07.465Z,4.10
2017-10-14T14:41:17.798Z,4.08
2017-10-14T14:42:28.115Z,4.13
2017-10-14T14:43:38.498Z,4.12
2017-10-14T14:44:48.979Z,4.08
2017-10-14T14:45:59.298Z,4.09
2017-10-14T14:47:09.651Z,4.10
2017-10-14T14:48:19.960Z,4.08
2017-10-14T14:49:30.347Z,4.12
2017-10-14T14:50:40.882Z,4.09
2017-10-14T14:51:51.045Z,4.08
2017-10-14T14:53:01.406Z,4.08
2017-10-14T14:54:11.752Z,4.12
2017-10-14T14:55:22.120Z,4.12
2017-10-14T14:56:32.449Z,4.12
2017-10-14T14:57:42.897Z,4.12
2017-10-14T14:58:53.141Z,4.12
2017-10-14T15:00:03.493Z,4.12
2017-10-14T15:01:13.841Z,4.12
2017-10-14T15:02:24.154Z,4.12
2017-10-14T15:03:34.494Z,4.10
2017-10-14T15:04:44.837Z,4.12
2017-10-14T15:05:55.265Z,4.12
2017-10-14T15:07:05.592Z,4.12
2017-10-14T15:08:15.827Z,4.12
2017-10-14T15:09:26.251Z,4.11
2017-10-14T15:10:36.554Z,4.09
2017-10-14T15:11:46.886Z,4.12
2017-10-14T15:12:57.139Z,4.13
2017-10-14T15:14:07.431Z,4.08
2017-10-14T15:15:17.743Z,4.12
2017-10-14T15:16:28.362Z,4.12
2017-10-14T15:17:38.371Z,4.12
2017-10-14T15:18:48.685Z,4.12
2017-10-14T15:19:59.949Z,4.12
2017-10-14T15:21:09.299Z,4.12
2017-10-14T15:22:19.497Z,4.12
2017-10-14T15:23:29.769Z,4.10
2017-10-14T15:24:40.039Z,4.10
2017-10-14T15:25:50.365Z,4.11
2017-10-14T15:27:00.578Z,4.07
2017-10-14T15:28:10.732Z,4.12
2017-10-14T15:29:20.832Z,4.09
2017-10-14T15:30:31.055Z,4.12